メインページ
METAR-TAF:

METAR-TAF

空港 :

ベオグラード・ニコラ・テスラ空港

ベオグラード, セルビア

緯度: 44-49N, 経度: 020-17E, 海抜: 96m

現時点の気象観測

当レポートは25分前の11:30(UTC)に作成
西/南西の風 10kt
気温 6°C
湿度 100%
気圧 1001 hPa
視程: 6000m
高度600ftの千切れ雲あり

METAR: LYBE 141130Z 25010KT 6000 BKN006 06/06 Q1001 NOSIG

時間: 12:55 (11:55 UTC)

予報

当レポートは55分前の11:00(UTC)に作成
予報は14日の 12時(UTC)から 15日の 12時(UTC)まで有効
西の風 12kt
視程: 8000m
高度800ftの千切れ雲あり
高度4000ftの千切れ雲あり
14日の 15時(UTC)から 14日の 17時(UTC)まで徐々に
南/南西の風 5kt
高度4000ftの雲は散在している
14日の 20時(UTC)から 14日の 22時(UTC)まで徐々に
視程: 3000m
確率 40% :
15日の 00時(UTC)から 15日の 06時(UTC)まで一時的に
視程: 0600m
15日の 07時(UTC)から 15日の 09時(UTC)まで徐々に
南東の風 10kt
視程10km以上

TAF: LYBE 141100Z 1412/1512 26012KT 8000 BKN008 BKN040 TX13/1512Z TN01/1505Z BECMG 1415/1417 20005KT SCT040 BECMG 1420/1422 3000 BR PROB40 TEMPO 1500/1506 0600 FG BECMG 1507/1509 14010KT 9999 NSW

4,000以上の空港の気象観測と天気予報(METAR報とTAF報)

利用可能な観測所は地図上に黄色い丸と赤い丸で示す。

丸の上にカーソルを重ねると観測所名を参照できる。

次にクリックすると気象観測と天気予報を参照できる。

マップの切り替え:黒色「×」印の緑ボタンをクリックして拡大、「-」印の緑ボタンをクリックして縮小、緑色の三角印をクリックして隣りの地図に切り替え


METAR-TAF: